createdAt,value
2023-03-18T00:01:27.292Z,100714.78
2023-03-18T00:03:54.349Z,100716.75
2023-03-18T00:06:22.381Z,100711.00
2023-03-18T00:08:50.906Z,100707.72
2023-03-18T00:11:20.173Z,100705.56
2023-03-18T00:13:48.202Z,100706.88
2023-03-18T00:16:16.018Z,100707.22
2023-03-18T00:18:43.496Z,100706.38
2023-03-18T00:21:11.271Z,100701.16
2023-03-18T00:23:38.881Z,100701.47
2023-03-18T00:26:06.008Z,100707.38
2023-03-18T00:28:33.037Z,100713.59
2023-03-18T00:31:08.857Z,100699.66
2023-03-18T00:33:38.260Z,100710.31
2023-03-18T00:36:06.784Z,100703.25
2023-03-18T00:38:33.875Z,100702.94
2023-03-18T00:41:15.995Z,100708.34
2023-03-18T00:43:52.926Z,100712.16
2023-03-18T00:46:26.898Z,100713.31
2023-03-18T00:48:56.458Z,100701.69
2023-03-18T00:51:26.119Z,100702.84
2023-03-18T00:53:55.804Z,100710.19
2023-03-18T00:56:25.817Z,100710.19
2023-03-18T00:58:54.046Z,100719.06
2023-03-18T01:01:22.566Z,100716.13
2023-03-18T01:03:50.472Z,100703.97
2023-03-18T01:06:22.764Z,100715.94
2023-03-18T01:08:50.476Z,100715.44
2023-03-18T01:11:18.247Z,100714.16
2023-03-18T01:13:46.402Z,100710.69
2023-03-18T01:16:14.504Z,100722.66
2023-03-18T01:18:41.951Z,100716.44
2023-03-18T01:21:10.466Z,100718.22
2023-03-18T01:23:38.492Z,100701.19
2023-03-18T01:26:06.766Z,100724.13
2023-03-18T01:28:34.355Z,100665.28
2023-03-18T01:31:01.698Z,100721.50
2023-03-18T01:33:30.161Z,100716.44
2023-03-18T01:36:00.082Z,100720.69
2023-03-18T01:38:30.558Z,100718.72
2023-03-18T01:40:59.127Z,100723.16
2023-03-18T01:43:30.763Z,100722.34
2023-03-18T01:46:00.871Z,100721.00
2023-03-18T01:48:34.100Z,100714.94
2023-03-18T01:51:06.112Z,100719.88
2023-03-18T01:53:39.306Z,100700.03
2023-03-18T01:56:07.987Z,100715.94
2023-03-18T01:58:45.548Z,100726.78
2023-03-18T02:01:20.409Z,100732.03
2023-03-18T02:03:48.511Z,100727.59
2023-03-18T02:06:15.464Z,100732.66
2023-03-18T02:08:42.276Z,100739.22
2023-03-18T02:11:10.660Z,100743.97
2023-03-18T02:13:41.753Z,100732.94
2023-03-18T02:16:34.323Z,100742.22
2023-03-18T02:19:31.568Z,100743.44
2023-03-18T02:22:10.145Z,100751.13
2023-03-18T02:25:04.148Z,100745.34
2023-03-18T02:27:35.641Z,100735.63
2023-03-18T02:30:21.198Z,100741.22
2023-03-18T02:32:51.343Z,100739.78
2023-03-18T02:35:18.105Z,100742.00
2023-03-18T02:37:45.141Z,100716.94
2023-03-18T02:40:19.189Z,100736.31
2023-03-18T02:42:47.107Z,100741.56
2023-03-18T02:45:30.963Z,100749.16
2023-03-18T02:48:00.131Z,100751.78
2023-03-18T02:50:27.092Z,100758.47
2023-03-18T02:52:54.154Z,100755.00
2023-03-18T02:55:21.308Z,100753.25
2023-03-18T02:57:48.412Z,100692.00
2023-03-18T03:00:16.612Z,100747.25
2023-03-18T03:02:43.829Z,100750.28
2023-03-18T03:05:11.296Z,100748.66
2023-03-18T03:07:38.241Z,100752.34
2023-03-18T03:10:07.000Z,100759.72
2023-03-18T03:12:34.807Z,100767.22
2023-03-18T03:15:01.705Z,100752.84
2023-03-18T03:17:31.368Z,100740.25
2023-03-18T03:19:58.333Z,100741.72
2023-03-18T03:22:25.431Z,100743.19
2023-03-18T03:24:52.651Z,100743.47
2023-03-18T03:27:19.926Z,100737.63
2023-03-18T03:29:46.840Z,100721.44
2023-03-18T03:32:14.133Z,100720.19
2023-03-18T03:34:41.750Z,100737.34
2023-03-18T03:37:09.221Z,100732.63
2023-03-18T03:39:36.173Z,100732.50
2023-03-18T03:42:03.068Z,100723.19
2023-03-18T03:44:30.663Z,100743.78
2023-03-18T03:46:57.996Z,100752.06
2023-03-18T03:49:25.351Z,100751.56
2023-03-18T03:51:52.484Z,100733.25
2023-03-18T03:54:20.170Z,100748.47
2023-03-18T03:56:48.141Z,100735.06
2023-03-18T03:59:15.133Z,100742.69
2023-03-18T04:01:42.114Z,100727.31
2023-03-18T04:04:08.967Z,100754.41
2023-03-18T04:06:35.988Z,100745.75
2023-03-18T04:09:04.577Z,100746.50
2023-03-18T04:11:31.597Z,100758.44
2023-03-18T04:13:58.493Z,100755.66
2023-03-18T04:16:25.363Z,100772.69
2023-03-18T04:18:52.227Z,100774.97
2023-03-18T04:21:19.190Z,100763.50
2023-03-18T04:23:46.705Z,100771.72
2023-03-18T04:26:13.612Z,100765.28
2023-03-18T04:28:40.825Z,100761.50
2023-03-18T04:31:08.010Z,100766.63
2023-03-18T04:33:35.035Z,100761.94
2023-03-18T04:36:01.940Z,100765.00
2023-03-18T04:38:29.051Z,100753.88
2023-03-18T04:40:58.440Z,100755.22
2023-03-18T04:43:25.410Z,100766.69
2023-03-18T04:45:53.237Z,100772.03
2023-03-18T04:48:20.114Z,100751.00
2023-03-18T04:50:47.076Z,100734.91
2023-03-18T04:53:13.920Z,100760.78
2023-03-18T04:55:41.108Z,100761.78
2023-03-18T04:58:07.959Z,100760.63
2023-03-18T05:00:35.340Z,100775.56
2023-03-18T05:03:03.376Z,100792.25
2023-03-18T05:05:31.208Z,100782.66
2023-03-18T05:07:58.701Z,100784.66
2023-03-18T05:10:25.801Z,100779.91
2023-03-18T05:12:52.790Z,100779.75
2023-03-18T05:15:19.894Z,100778.66
2023-03-18T05:17:47.672Z,100781.09
2023-03-18T05:20:14.866Z,100781.56
2023-03-18T05:22:42.385Z,100787.97
2023-03-18T05:25:11.643Z,100790.97
2023-03-18T05:27:39.150Z,100786.88
2023-03-18T05:30:07.439Z,100793.91
2023-03-18T05:32:34.388Z,100795.88
2023-03-18T05:35:01.467Z,100793.59
2023-03-18T05:37:28.479Z,100772.84
2023-03-18T05:39:55.621Z,100792.25
2023-03-18T05:42:22.638Z,100785.81
2023-03-18T05:44:50.103Z,100791.66
2023-03-18T05:47:17.038Z,100786.88
2023-03-18T05:49:43.968Z,100794.63
2023-03-18T05:52:11.113Z,100796.47
2023-03-18T05:54:38.393Z,100798.38
2023-03-18T05:57:05.333Z,100795.19
2023-03-18T05:59:32.230Z,100801.03
2023-03-18T06:01:59.358Z,100808.00
2023-03-18T06:04:27.364Z,100802.97
2023-03-18T06:06:55.408Z,100801.38
2023-03-18T06:09:22.695Z,100817.63
2023-03-18T06:11:49.577Z,100820.41
2023-03-18T06:14:16.701Z,100820.56
2023-03-18T06:16:45.021Z,100827.59
2023-03-18T06:19:12.178Z,100829.94
2023-03-18T06:21:39.936Z,100835.53
2023-03-18T06:24:08.437Z,100828.63
2023-03-18T06:26:35.773Z,100788.59
2023-03-18T06:29:04.233Z,100834.44
2023-03-18T06:31:31.610Z,100834.13
2023-03-18T06:34:00.877Z,100831.88
2023-03-18T06:36:28.447Z,100834.78
2023-03-18T06:38:56.251Z,100826.50
2023-03-18T06:41:23.113Z,100833.09
2023-03-18T06:43:50.837Z,100832.13
2023-03-18T06:46:18.662Z,100835.63
2023-03-18T06:48:45.818Z,100826.94
2023-03-18T06:51:12.884Z,100849.44
2023-03-18T06:53:40.345Z,100856.81
2023-03-18T06:56:08.128Z,100849.28
2023-03-18T06:58:35.038Z,100855.50
2023-03-18T07:01:03.257Z,100860.13
2023-03-18T07:03:30.235Z,100852.72
2023-03-18T07:05:57.553Z,100864.88
2023-03-18T07:08:24.433Z,100878.16
2023-03-18T07:10:57.369Z,100875.69
2023-03-18T07:13:24.892Z,100888.81
2023-03-18T07:15:51.856Z,100881.13
2023-03-18T07:18:18.880Z,100885.88
2023-03-18T07:20:46.190Z,100888.66
2023-03-18T07:23:13.434Z,100892.72
2023-03-18T07:25:40.365Z,100891.56
2023-03-18T07:28:07.482Z,100884.19
2023-03-18T07:30:35.216Z,100897.09
2023-03-18T07:33:02.549Z,100903.69
2023-03-18T07:35:29.776Z,100897.63
2023-03-18T07:37:57.734Z,100901.34
2023-03-18T07:40:24.930Z,100902.84
2023-03-18T07:42:51.919Z,100904.50
2023-03-18T07:45:18.787Z,100911.09
2023-03-18T07:47:47.174Z,100918.44
2023-03-18T07:50:14.533Z,100922.03
2023-03-18T07:52:42.199Z,100914.53
2023-03-18T07:55:11.742Z,100915.06
2023-03-18T07:57:39.672Z,100928.88
2023-03-18T08:00:13.614Z,100927.75
2023-03-18T08:02:40.689Z,100928.34
2023-03-18T08:05:08.326Z,100929.34
2023-03-18T08:07:36.421Z,100938.28
2023-03-18T08:10:04.153Z,100930.28
2023-03-18T08:12:49.022Z,100935.75
2023-03-18T08:15:19.067Z,100941.09
2023-03-18T08:17:46.086Z,100945.16
2023-03-18T08:20:13.667Z,100935.38
2023-03-18T08:22:40.475Z,100964.06
2023-03-18T08:25:07.945Z,100966.00
2023-03-18T08:27:35.489Z,100962.97
2023-03-18T08:30:03.760Z,100965.47
2023-03-18T08:32:31.119Z,100969.28
2023-03-18T08:34:58.197Z,100962.84
2023-03-18T08:37:25.206Z,100965.88
2023-03-18T08:39:52.065Z,100978.88
2023-03-18T08:42:19.486Z,100981.75
2023-03-18T08:44:46.447Z,100986.53
2023-03-18T08:47:13.546Z,100998.09
2023-03-18T08:49:40.524Z,101002.19
2023-03-18T08:52:07.706Z,101002.06
2023-03-18T08:54:35.324Z,101006.97
2023-03-18T08:57:03.121Z,101003.56
2023-03-18T08:59:29.976Z,101015.56
2023-03-18T09:01:56.735Z,101010.47
2023-03-18T09:04:27.335Z,101009.69
2023-03-18T09:06:54.236Z,101009.78
2023-03-18T09:09:22.910Z,101012.94
2023-03-18T09:11:53.154Z,101022.16
2023-03-18T09:14:20.318Z,101010.31
2023-03-18T09:16:47.516Z,101017.06
2023-03-18T09:19:14.631Z,101008.69
2023-03-18T09:21:41.651Z,101014.44
2023-03-18T09:24:08.718Z,101015.03
2023-03-18T09:26:35.646Z,101019.00
2023-03-18T09:29:02.889Z,101017.97
2023-03-18T09:31:30.887Z,100994.81
2023-03-18T09:33:57.745Z,101010.31
2023-03-18T09:36:24.797Z,101030.97
2023-03-18T09:38:51.857Z,101037.38
2023-03-18T09:41:21.541Z,101038.97
2023-03-18T09:44:15.360Z,101035.19
2023-03-18T09:47:06.939Z,101042.75
2023-03-18T09:49:59.515Z,101038.28
2023-03-18T09:52:44.157Z,101042.03
2023-03-18T09:55:30.646Z,101040.13
2023-03-18T09:58:03.338Z,101030.06
2023-03-18T10:00:34.795Z,101042.28
2023-03-18T10:03:06.466Z,101036.66
2023-03-18T10:05:50.166Z,101046.38
2023-03-18T10:08:54.596Z,101044.91
2023-03-18T10:11:31.162Z,101038.28
2023-03-18T10:14:27.318Z,101028.59
2023-03-18T10:17:03.796Z,101023.41
2023-03-18T10:19:31.914Z,101019.78
2023-03-18T10:22:19.209Z,101029.28
2023-03-18T10:24:51.919Z,101027.94
2023-03-18T10:27:38.931Z,101029.28
2023-03-18T10:30:43.652Z,101038.97
2023-03-18T10:33:22.276Z,101040.38
2023-03-18T10:36:05.652Z,101029.78
2023-03-18T10:38:45.062Z,101034.00
2023-03-18T10:41:30.021Z,101035.66
2023-03-18T10:43:57.685Z,101009.94
2023-03-18T10:46:27.345Z,101012.84
2023-03-18T10:49:10.973Z,101016.72
2023-03-18T10:51:50.463Z,101011.84
2023-03-18T10:54:36.945Z,101020.50
2023-03-18T10:57:04.318Z,101030.13
2023-03-18T10:59:31.584Z,101022.91
2023-03-18T11:02:13.955Z,101024.88
2023-03-18T11:04:57.978Z,101031.00
2023-03-18T11:07:26.975Z,101028.88
2023-03-18T11:09:55.057Z,101037.06
2023-03-18T11:12:29.019Z,101042.41
2023-03-18T11:14:56.785Z,101050.81
2023-03-18T11:17:26.645Z,101065.28
2023-03-18T11:20:08.300Z,101047.75
2023-03-18T11:22:37.214Z,101035.13
2023-03-18T11:25:16.901Z,101038.28
2023-03-18T11:27:49.506Z,101056.38
2023-03-18T11:30:34.890Z,101053.38
2023-03-18T11:33:10.780Z,101075.28
2023-03-18T11:35:50.466Z,101071.53
2023-03-18T11:38:29.278Z,101069.84
2023-03-18T11:41:26.673Z,101065.00
2023-03-18T11:44:02.470Z,101058.31
2023-03-18T11:46:40.874Z,101062.16
2023-03-18T11:49:15.154Z,101073.56
2023-03-18T11:52:00.513Z,101055.34
2023-03-18T11:54:46.132Z,101054.88
2023-03-18T11:57:41.934Z,101057.03
2023-03-18T12:00:21.053Z,101060.44
2023-03-18T12:03:15.658Z,101059.63
2023-03-18T12:06:07.179Z,101060.44
2023-03-18T12:08:50.585Z,101056.19
2023-03-18T12:11:28.964Z,101066.47
2023-03-18T12:14:01.719Z,101067.72
2023-03-18T12:16:43.751Z,101066.25
2023-03-18T12:19:44.259Z,101065.31
2023-03-18T12:22:26.735Z,101065.84
2023-03-18T12:25:02.798Z,101063.38
2023-03-18T12:27:40.739Z,101062.00
2023-03-18T12:30:35.701Z,101063.63
2023-03-18T12:33:27.433Z,101063.56
2023-03-18T12:36:15.761Z,101068.16
2023-03-18T12:39:14.863Z,101057.91
2023-03-18T12:42:03.803Z,101066.81
2023-03-18T12:44:50.153Z,101054.06
2023-03-18T12:47:30.416Z,101060.25
2023-03-18T12:50:13.036Z,101077.66
2023-03-18T12:52:46.651Z,101075.47
2023-03-18T12:55:25.557Z,101076.75
2023-03-18T12:57:59.840Z,101060.78
2023-03-18T13:00:40.323Z,101071.31
2023-03-18T13:03:13.730Z,101070.69
2023-03-18T13:05:47.911Z,101069.03
2023-03-18T13:08:41.875Z,101073.69
2023-03-18T13:11:22.223Z,101079.69
2023-03-18T13:13:55.200Z,101070.34
2023-03-18T13:16:25.959Z,101072.00
2023-03-18T13:18:56.422Z,101073.13
2023-03-18T13:21:29.899Z,101068.56
2023-03-18T13:24:23.077Z,101064.59
2023-03-18T13:27:24.816Z,101080.19
2023-03-18T13:30:02.232Z,101082.09
2023-03-18T13:32:51.082Z,101081.16
2023-03-18T13:35:43.820Z,101074.44
2023-03-18T13:38:31.302Z,101072.94
2023-03-18T13:41:29.014Z,101077.63
2023-03-18T13:43:59.054Z,101078.28
2023-03-18T13:46:30.888Z,101086.41
2023-03-18T13:49:00.695Z,101082.28
2023-03-18T13:51:28.406Z,101084.06
2023-03-18T13:54:01.243Z,101085.03
2023-03-18T13:56:55.755Z,101081.66
2023-03-18T13:59:34.827Z,101085.19
2023-03-18T14:02:23.206Z,101088.59
2023-03-18T14:04:52.445Z,101089.31
2023-03-18T14:07:23.906Z,101075.63
2023-03-18T14:10:18.730Z,101092.63
2023-03-18T14:12:51.438Z,101090.19
2023-03-18T14:15:29.946Z,101086.88
2023-03-18T14:17:58.802Z,101090.66
2023-03-18T14:20:38.793Z,101092.44
2023-03-18T14:23:42.317Z,101093.50
2023-03-18T14:26:24.433Z,101095.59
2023-03-18T14:29:16.385Z,101102.97
2023-03-18T14:31:43.411Z,101100.31
2023-03-18T14:34:19.636Z,101095.66
2023-03-18T14:37:18.086Z,101092.53
2023-03-18T14:39:48.234Z,101102.91
2023-03-18T14:42:28.867Z,101094.09
2023-03-18T14:45:14.394Z,101100.31
2023-03-18T14:47:54.071Z,101099.41
2023-03-18T14:50:40.748Z,101100.88
2023-03-18T14:53:15.560Z,101100.69
2023-03-18T14:55:44.090Z,101104.69
2023-03-18T14:58:19.638Z,101102.97
2023-03-18T15:00:51.753Z,101098.59
2023-03-18T15:03:27.923Z,101106.50
2023-03-18T15:06:00.993Z,101099.91
2023-03-18T15:08:48.202Z,101102.97
2023-03-18T15:11:16.802Z,101103.59
2023-03-18T15:13:45.017Z,101091.09
2023-03-18T15:16:18.447Z,101107.53
2023-03-18T15:18:45.900Z,101111.00
2023-03-18T15:21:23.466Z,101106.00
2023-03-18T15:23:53.147Z,101108.50
2023-03-18T15:26:24.160Z,101111.59
2023-03-18T15:28:59.066Z,101116.13
2023-03-18T15:31:38.901Z,101107.78
2023-03-18T15:34:20.453Z,101107.00
2023-03-18T15:37:01.730Z,101080.44
2023-03-18T15:39:30.978Z,101092.47
2023-03-18T15:42:00.946Z,101106.06
2023-03-18T15:44:36.304Z,101101.81
2023-03-18T15:47:16.883Z,101103.34
2023-03-18T15:49:54.776Z,101099.09
2023-03-18T15:52:43.516Z,101115.53
2023-03-18T15:55:30.412Z,101120.44
2023-03-18T15:57:58.632Z,101091.28
2023-03-18T16:00:25.884Z,101113.75
2023-03-18T16:02:52.972Z,101092.38
2023-03-18T16:05:26.025Z,101114.09
2023-03-18T16:07:54.103Z,101105.75
2023-03-18T16:10:23.096Z,101109.13
2023-03-18T16:12:58.281Z,101113.00
2023-03-18T16:15:26.842Z,101106.44
2023-03-18T16:17:55.546Z,101083.56
2023-03-18T16:20:24.466Z,101107.69
2023-03-18T16:22:52.200Z,101115.31
2023-03-18T16:25:19.777Z,101120.13
2023-03-18T16:27:49.677Z,101128.69
2023-03-18T16:30:26.229Z,101132.53
2023-03-18T16:32:54.926Z,101133.31
2023-03-18T16:35:24.793Z,101142.13
2023-03-18T16:37:53.354Z,101144.25
2023-03-18T16:40:26.676Z,101142.28
2023-03-18T16:42:54.629Z,101139.97
2023-03-18T16:45:30.376Z,101141.81
2023-03-18T16:48:02.839Z,101140.78
2023-03-18T16:50:34.048Z,101146.59
2023-03-18T16:53:01.285Z,101140.31
2023-03-18T16:55:29.096Z,101120.19
2023-03-18T16:57:59.004Z,101151.69
2023-03-18T17:00:34.617Z,101142.72
2023-03-18T17:03:02.420Z,101149.16
2023-03-18T17:05:29.449Z,101144.47
2023-03-18T17:07:56.436Z,101126.47
2023-03-18T17:10:26.519Z,101139.63
2023-03-18T17:12:57.682Z,101135.19
2023-03-18T17:15:29.318Z,101148.22
2023-03-18T17:17:58.768Z,101143.13
2023-03-18T17:20:30.611Z,101156.44
2023-03-18T17:22:57.443Z,101131.78
2023-03-18T17:25:27.400Z,101152.34
2023-03-18T17:27:57.863Z,101126.97
2023-03-18T17:30:37.065Z,101161.84
2023-03-18T17:33:05.500Z,101172.00
2023-03-18T17:35:33.173Z,101177.03
2023-03-18T17:38:00.951Z,101176.03
2023-03-18T17:40:30.673Z,101184.06
2023-03-18T17:42:57.687Z,101185.50
2023-03-18T17:45:32.608Z,101169.50
2023-03-18T17:48:22.568Z,101188.53
2023-03-18T17:50:51.840Z,101192.44
2023-03-18T17:53:25.572Z,101186.19
2023-03-18T17:55:53.882Z,101193.25
2023-03-18T17:58:23.333Z,101200.31
2023-03-18T18:00:50.463Z,101189.72
2023-03-18T18:03:26.847Z,101194.16
2023-03-18T18:05:57.691Z,101191.38
2023-03-18T18:08:25.866Z,101199.44
2023-03-18T18:10:58.353Z,101201.75
2023-03-18T18:13:25.250Z,101180.16
2023-03-18T18:15:52.843Z,101195.78
2023-03-18T18:18:25.982Z,101204.56
2023-03-18T18:20:58.697Z,101207.59
2023-03-18T18:23:31.411Z,101205.19
2023-03-18T18:26:09.436Z,101204.66
2023-03-18T18:28:46.535Z,101200.19
2023-03-18T18:31:14.782Z,101207.91
2023-03-18T18:33:44.364Z,101205.72
2023-03-18T18:36:13.097Z,101206.88
2023-03-18T18:38:43.805Z,101174.44
2023-03-18T18:41:10.997Z,101208.38
2023-03-18T18:43:38.077Z,101186.69
2023-03-18T18:46:13.600Z,101200.09
2023-03-18T18:48:41.044Z,101213.28
2023-03-18T18:51:16.054Z,101211.03
2023-03-18T18:53:43.650Z,101214.94
2023-03-18T18:56:20.051Z,101213.94
2023-03-18T18:58:47.987Z,101215.06
2023-03-18T19:01:15.305Z,101213.69
2023-03-18T19:03:43.038Z,101209.41
2023-03-18T19:06:31.514Z,101221.50
2023-03-18T19:09:00.880Z,101216.75
2023-03-18T19:11:28.713Z,101217.13
2023-03-18T19:14:20.388Z,101213.81
2023-03-18T19:16:48.528Z,101218.09
2023-03-18T19:19:21.393Z,101202.66
2023-03-18T19:21:49.858Z,101210.19
2023-03-18T19:24:36.102Z,101212.41
2023-03-18T19:27:07.311Z,101204.00
2023-03-18T19:29:34.453Z,101207.56
2023-03-18T19:32:01.942Z,101213.81
2023-03-18T19:34:32.468Z,101199.50
2023-03-18T19:37:03.015Z,101189.19
2023-03-18T19:39:30.158Z,101205.19
2023-03-18T19:41:59.976Z,101206.81
2023-03-18T19:44:27.431Z,101210.97
2023-03-18T19:46:56.531Z,101205.03
2023-03-18T19:49:35.471Z,101209.44
2023-03-18T19:52:16.745Z,101214.19
2023-03-18T19:54:45.421Z,101211.31
2023-03-18T19:57:18.361Z,101212.06
2023-03-18T19:59:48.652Z,101185.78
2023-03-18T20:02:21.184Z,101211.06
2023-03-18T20:04:50.293Z,101212.19
2023-03-18T20:07:19.045Z,101213.84
2023-03-18T20:09:46.309Z,101218.91
2023-03-18T20:12:37.902Z,101222.50
2023-03-18T20:15:08.142Z,101229.31
2023-03-18T20:17:46.363Z,101231.88
2023-03-18T20:20:16.926Z,101237.41
2023-03-18T20:22:48.275Z,101237.50
2023-03-18T20:25:28.583Z,101249.78
2023-03-18T20:27:57.432Z,101245.84
2023-03-18T20:30:27.065Z,101248.13
2023-03-18T20:32:54.583Z,101229.66
2023-03-18T20:35:22.948Z,101243.06
2023-03-18T20:37:49.975Z,101242.25
2023-03-18T20:40:24.092Z,101247.00
2023-03-18T20:42:52.814Z,101244.72
2023-03-18T20:45:21.192Z,101253.97
2023-03-18T20:47:48.535Z,101248.75
2023-03-18T20:50:21.421Z,101251.75
2023-03-18T20:52:48.780Z,101257.72
2023-03-18T20:55:25.725Z,101248.88
2023-03-18T20:57:53.659Z,101245.59
2023-03-18T21:00:29.398Z,101246.72
2023-03-18T21:02:58.531Z,101250.13
2023-03-18T21:05:26.751Z,101206.31
2023-03-18T21:07:53.945Z,101245.50
2023-03-18T21:10:26.442Z,101247.63
2023-03-18T21:12:54.108Z,101242.81
2023-03-18T21:15:27.348Z,101246.84
2023-03-18T21:17:55.304Z,101241.59
2023-03-18T21:20:27.412Z,101236.22
2023-03-18T21:22:56.433Z,101239.72
2023-03-18T21:25:29.001Z,101228.81
2023-03-18T21:27:56.327Z,101233.72
2023-03-18T21:30:24.034Z,101233.03
2023-03-18T21:32:51.284Z,101237.78
2023-03-18T21:35:21.946Z,101236.28
2023-03-18T21:37:49.525Z,101233.94
2023-03-18T21:40:22.647Z,101236.59
2023-03-18T21:42:51.152Z,101232.38
2023-03-18T21:45:21.315Z,101229.34
2023-03-18T21:47:48.488Z,101225.22
2023-03-18T21:50:26.882Z,101239.38
2023-03-18T21:52:54.673Z,101227.94
2023-03-18T21:55:22.752Z,101223.06
2023-03-18T21:57:49.740Z,101229.25
2023-03-18T22:00:20.891Z,101232.88
2023-03-18T22:02:48.103Z,101222.81
2023-03-18T22:05:21.924Z,101212.50
2023-03-18T22:07:50.700Z,101216.00
2023-03-18T22:10:23.424Z,101219.84
2023-03-18T22:12:50.880Z,101227.13
2023-03-18T22:15:23.734Z,101221.81
2023-03-18T22:17:51.600Z,101206.78
2023-03-18T22:20:18.651Z,101212.28
2023-03-18T22:22:45.949Z,101216.75
2023-03-18T22:25:36.586Z,101216.13
2023-03-18T22:28:03.841Z,101214.34
2023-03-18T22:30:33.145Z,101220.06
2023-03-18T22:33:02.322Z,101205.41
2023-03-18T22:35:30.195Z,101207.22
2023-03-18T22:37:57.327Z,101201.03
2023-03-18T22:40:29.826Z,101204.88
2023-03-18T22:43:00.150Z,101204.31
2023-03-18T22:45:34.416Z,101212.19
2023-03-18T22:48:04.449Z,101209.63
2023-03-18T22:50:33.957Z,101212.09
2023-03-18T22:53:03.962Z,101217.50
2023-03-18T22:55:36.949Z,101224.00
2023-03-18T22:58:03.929Z,101223.84
2023-03-18T23:00:30.933Z,101220.34
2023-03-18T23:02:58.811Z,101203.09
2023-03-18T23:05:29.730Z,101211.34
2023-03-18T23:07:57.469Z,101221.91
2023-03-18T23:10:25.148Z,101211.59
2023-03-18T23:12:52.246Z,101207.00
2023-03-18T23:15:21.753Z,101201.31
2023-03-18T23:17:49.537Z,101201.75
2023-03-18T23:20:18.286Z,101198.28
2023-03-18T23:22:46.038Z,101197.97
2023-03-18T23:25:16.844Z,101192.53
2023-03-18T23:27:44.579Z,101194.06
2023-03-18T23:30:13.526Z,101200.53
2023-03-18T23:32:41.285Z,101200.53
2023-03-18T23:35:09.928Z,101211.22
2023-03-18T23:37:36.819Z,101207.66
2023-03-18T23:40:05.478Z,101208.38
2023-03-18T23:42:32.498Z,101203.34
2023-03-18T23:44:59.503Z,101209.94
2023-03-18T23:47:26.423Z,101198.63
2023-03-18T23:49:53.407Z,101188.31
2023-03-18T23:52:20.318Z,101197.31
2023-03-18T23:54:47.462Z,101194.47
2023-03-18T23:57:15.161Z,101201.28
2023-03-18T23:59:42.310Z,101200.22
